Meteorología y climatología de Navarra
Datos de la estación - Meteo Navarra

Estación de Aralar GN

Altitud 1344 m.


Datos desde el 11/01/2019 hasta el 12/01/2019 en horario solar
Los datos son PROVISIONALES

Anterior Página 1 de 1 Siguiente Descargar: Formato para Excel 2000 o superior   Formato csv   Formato para OpenOffice Calc
Fecha Temperatura Humedad relativa Radiación global Insolación Precipitación Vel. viento 10 m Vel. viento 10 m Dir. viento 10 m
ºC % W/m² s l/m² m/s km/h º
11/01/2019 0:00 -6.1 100 0.0 0 0.0 9.0 32.5 349
11/01/2019 0:10 -6.1 100 0.0 0 0.0 8.1 29.3 346
11/01/2019 0:20 -6.1 100 0.0 0 0.0 9.6 34.5 350
11/01/2019 0:30 -6.1 100 0.0 0 0.0 9.0 32.2 347
11/01/2019 0:40 -6.1 100 0.0 0 0.0 9.4 33.9 350
11/01/2019 0:50 -6.2 100 0.0 0 0.0 9.9 35.6 350
11/01/2019 1:00 -6.2 100 0.0 0 0.0 8.5 30.5 346
11/01/2019 1:10 -6.0 100 0.0 0 0.0 8.7 31.3 349
11/01/2019 1:20 -6.1 100 0.0 0 0.0 8.7 31.3 348
11/01/2019 1:30 -6.2 100 0.0 0 0.0 8.1 29.1 349
11/01/2019 1:40 -6.1 100 0.0 0 0.0 7.4 26.6 348
11/01/2019 1:50 -6.4 100 0.0 0 0.0 6.6 23.8 344
11/01/2019 2:00 -6.5 100 0.0 0 0.0 7.6 27.4 348
11/01/2019 2:10 -6.6 100 0.0 0 0.0 7.5 27.1 349
11/01/2019 2:20 -6.8 100 0.0 0 0.0 5.7 20.4 349
11/01/2019 2:30 -6.7 100 0.0 0 0.0 6.5 23.5 349
11/01/2019 2:40 -6.8 100 0.0 0 0.0 5.7 20.3 346
11/01/2019 2:50 -6.9 100 0.0 0 0.0 4.9 17.8 345
11/01/2019 3:00 -7.0 100 0.0 0 0.0 5.7 20.5 349
11/01/2019 3:10 -7.1 100 0.0 0 0.0 5.0 17.9 346
11/01/2019 3:20 -7.1 100 0.0 0 0.0 6.3 22.7 350
11/01/2019 3:30 -7.1 100 0.0 0 0.0 6.1 21.8 346
11/01/2019 3:40 -7.1 100 0.0 0 0.0 6.0 21.5 347
11/01/2019 3:50 -7.1 100 0.0 0 0.0 5.9 21.1 346
11/01/2019 4:00 -7.2 100 0.0 0 0.0 6.2 22.4 346
11/01/2019 4:10 -7.2 100 0.0 0 0.0 6.3 22.7 345
11/01/2019 4:20 -7.1 100 0.0 0 0.0 7.3 26.4 348
11/01/2019 4:30 -7.1 100 0.0 0 0.0 7.3 26.3 347
11/01/2019 4:40 -7.1 100 0.0 0 0.0 7.8 27.9 349
11/01/2019 4:50 -7.0 100 0.0 0 0.0 7.3 26.3 347
11/01/2019 5:00 -7.0 100 0.0 0 0.0 7.1 25.7 347
11/01/2019 5:10 -7.2 100 0.0 0 0.0 6.9 24.9 346
11/01/2019 5:20 -7.1 100 0.0 0 0.0 7.1 25.6 346
11/01/2019 5:30 -7.0 100 0.0 0 0.0 7.6 27.3 347
11/01/2019 5:40 -7.0 100 0.0 0 0.0 7.6 27.2 347
11/01/2019 5:50 -7.0 100 0.0 0 0.0 7.4 26.6 347
11/01/2019 6:00 -7.0 100 0.0 0 0.0 7.5 27.0 347
11/01/2019 6:10 -7.0 100 0.0 0 0.0 8.7 31.3 349
11/01/2019 6:20 -6.9 100 0.0 0 0.0 8.8 31.8 348
11/01/2019 6:30 -6.9 100 0.0 0 0.0 8.5 30.5 347
11/01/2019 6:40 -6.8 100 0.0 0 0.0 8.2 29.6 348
11/01/2019 6:50 -6.9 100 0.0 0 0.0 8.8 31.8 347
11/01/2019 7:00 -6.9 100 0.0 0 0.0 8.4 30.2 346
11/01/2019 7:10 -6.9 100 0.0 0 0.0 8.4 30.3 347
11/01/2019 7:20 -7.1 100 0.0 0 0.0 7.5 27.1 346
11/01/2019 7:30 -7.0 100 0.0 0 0.0 8.2 29.5 348
11/01/2019 7:40 -6.9 100 0.0 0 0.0 7.7 27.8 348
11/01/2019 7:50 -6.9 100 0.0 0 0.0 7.2 25.8 347
11/01/2019 8:00 -6.9 100 7.9 46 0.0 7.3 26.4 348
11/01/2019 8:10 -6.8 100 28.4 164 0.0 7.0 25.3 348
11/01/2019 8:20 -6.7 100 37.6 182 0.0 6.4 23.0 348
11/01/2019 8:30 -6.6 100 57.6 254 0.0 7.0 25.1 345
11/01/2019 8:40 -6.4 100 60.5 134 0.0 7.0 25.2 348
11/01/2019 8:50 -6.3 100 47.3 26 0.0 6.6 23.6 347
11/01/2019 9:00 -6.2 100 57.5 82 0.0 6.5 23.5 350
11/01/2019 9:10 -6.0 100 51.1 26 0.0 6.0 21.6 349
11/01/2019 9:20 -6.0 100 71.3 64 0.0 6.1 22.0 347
11/01/2019 9:30 -5.9 100 93.3 74 0.0 5.9 21.3 347
11/01/2019 9:40 -5.7 100 139.3 222 0.0 5.1 18.3 346
11/01/2019 9:50 -5.6 100 249.9 524 0.0 5.7 20.6 349
11/01/2019 10:00 -5.5 100 293.5 600 0.0 5.8 20.7 351
11/01/2019 10:10 -5.0 100 299.9 598 0.0 5.2 18.5 351
11/01/2019 10:20 -4.9 100 314.9 600 0.0 5.5 19.8 348
11/01/2019 10:30 -4.9 100 368.6 600 0.0 6.7 24.2 348
11/01/2019 10:40 -4.7 100 377.3 600 0.0 6.7 24.0 346
11/01/2019 10:50 -4.6 100 397.5 600 0.0 6.5 23.5 349
11/01/2019 11:00 -4.6 100 346.0 600 0.0 7.2 25.8 351
11/01/2019 11:10 -5.0 100 374.7 600 0.0 7.3 26.1 347
11/01/2019 11:20 -5.5 100 390.8 600 0.0 7.6 27.5 350
11/01/2019 11:30 -5.7 100 290.3 518 0.0 7.2 25.8 350
11/01/2019 11:40 -5.5 100 350.4 600 0.0 6.5 23.5 350
11/01/2019 11:50 -5.8 100 357.0 600 0.0 7.2 25.7 350
11/01/2019 12:00 -5.6 100 397.3 600 0.0 6.4 23.2 348
11/01/2019 12:10 -5.5 100 291.0 526 0.0 6.3 22.6 348
11/01/2019 12:20 -5.5 100 176.4 62 0.0 6.0 21.4 349
11/01/2019 12:30 -5.4 100 190.5 22 0.0 5.9 21.1 353
11/01/2019 12:40 -5.2 100 134.0 18 0.0 6.3 22.5 354
11/01/2019 12:50 -5.1 100 144.5 66 0.0 5.5 19.8 349
11/01/2019 13:00 -4.8 100 152.0 12 0.0 6.0 21.6 351
11/01/2019 13:10 -4.7 100 227.3 216 0.0 7.1 25.6 350
11/01/2019 13:20 -4.6 100 186.7 156 0.0 5.4 19.3 342
11/01/2019 13:30 -4.5 100 166.5 78 0.0 6.1 21.9 343
11/01/2019 13:40 -4.5 100 147.9 66 0.0 4.9 17.5 343
11/01/2019 13:50 -4.4 100 198.9 182 0.0 5.7 20.5 347
11/01/2019 14:00 -4.2 100 240.3 316 0.0 5.2 18.7 340
11/01/2019 14:10 -4.2 100 283.8 454 0.0 6.5 23.2 342
11/01/2019 14:20 -4.0 100 284.1 518 0.0 7.8 28.2 347
11/01/2019 14:30 -3.8 100 308.1 542 0.0 8.3 30.0 345
11/01/2019 14:40 -3.7 100 257.5 408 0.0 7.9 28.4 344
11/01/2019 14:50 -4.1 100 290.5 512 0.0 8.0 28.8 348
11/01/2019 15:00 -4.3 100 333.3 600 0.0 8.0 28.6 348
11/01/2019 15:10 -4.3 100 307.6 600 0.0 8.0 28.7 350
11/01/2019 15:20 -4.5 100 177.5 564 0.0 7.8 28.0 349
11/01/2019 15:30 -4.6 100 295.8 600 0.0 7.4 26.7 346
11/01/2019 15:40 -4.6 100 262.7 600 0.0 7.8 28.2 348
11/01/2019 15:50 -4.5 100 248.8 580 0.0 6.5 23.5 350
11/01/2019 16:00 -4.6 100 113.0 310 0.0 7.6 27.3 346
11/01/2019 16:10 -4.6 100 113.1 342 0.0 7.9 28.3 347
11/01/2019 16:20 -4.4 100 144.2 518 0.0 8.4 30.1 347
11/01/2019 16:30 -4.6 100 4.7 0 0.0 8.8 31.8 348
11/01/2019 16:40 -4.7 100 0.0 0 0.0 9.4 33.8 348
11/01/2019 16:50 -4.6 100 0.0 0 0.0 9.8 35.3 349
11/01/2019 17:00 -4.7 100 0.0 0 0.0 9.3 33.4 349
11/01/2019 17:10 -4.8 100 0.0 0 0.0 9.2 33.0 347
11/01/2019 17:20 -4.7 100 0.0 0 0.0 10.1 36.3 346
11/01/2019 17:30 -4.7 100 0.0 0 0.0 10.0 35.8 348
11/01/2019 17:40 -4.6 100 0.0 0 0.0 9.3 33.5 350
11/01/2019 17:50 -4.6 100 0.0 0 0.0 9.2 33.0 350
11/01/2019 18:00 -4.7 100 0.0 0 0.0 9.1 32.9 348
11/01/2019 18:10 -4.6 100 0.0 0 0.0 9.0 32.3 354
11/01/2019 18:20 -4.6 100 0.0 0 0.0 8.9 32.1 355
11/01/2019 18:30 -4.7 100 0.0 0 0.0 8.5 30.4 350
11/01/2019 18:40 -4.7 100 0.0 0 0.0 8.4 30.1 350
11/01/2019 18:50 -4.6 100 0.0 0 0.0 9.0 32.5 351
11/01/2019 19:00 -4.7 100 0.0 0 0.0 7.8 28.2 352
11/01/2019 19:10 -4.6 100 0.0 0 0.0 8.7 31.4 350
11/01/2019 19:20 -4.5 100 0.0 0 0.0 8.7 31.4 350
11/01/2019 19:30 -4.5 100 0.0 0 0.0 8.7 31.3 350
11/01/2019 19:40 -4.5 100 0.0 0 0.0 8.4 30.4 351
11/01/2019 19:50 -4.5 100 0.0 0 0.0 7.3 26.2 349
11/01/2019 20:00 -4.5 100 0.0 0 0.0 8.1 29.1 351
11/01/2019 20:10 -4.5 100 0.0 0 0.0 7.4 26.8 351
11/01/2019 20:20 -4.5 100 0.0 0 0.0 6.1 22.1 353
11/01/2019 20:30 -4.4 100 0.0 0 0.0 6.5 23.3 351
11/01/2019 20:40 -4.3 100 0.0 0 0.0 6.2 22.5 348
11/01/2019 20:50 -4.3 100 0.0 0 0.0 7.5 27.1 349
11/01/2019 21:00 -4.3 100 0.0 0 0.0 7.3 26.1 349
11/01/2019 21:10 -4.2 100 0.0 0 0.0 8.2 29.7 349
11/01/2019 21:20 -4.2 100 0.0 0 0.0 6.9 24.9 348
11/01/2019 21:30 -4.0 100 0.0 0 0.0 7.3 26.1 348
11/01/2019 21:40 -4.1 100 0.0 0 0.0 6.7 24.0 348
11/01/2019 21:50 -4.0 100 0.0 0 0.0 6.3 22.8 348
11/01/2019 22:00 -3.9 100 0.0 0 0.0 5.8 20.8 353
11/01/2019 22:10 -3.7 100 0.0 0 0.0 5.2 18.6 349
11/01/2019 22:20 -3.6 100 0.0 0 0.0 5.0 18.1 346
11/01/2019 22:30 -3.4 100 0.0 0 0.0 4.7 16.7 350
11/01/2019 22:40 -3.4 100 0.0 0 0.0 4.5 16.2 353
11/01/2019 22:50 -3.5 100 0.0 0 0.0 4.2 14.9 349
11/01/2019 23:00 -3.5 100 0.0 0 0.0 3.8 13.8 349
11/01/2019 23:10 -3.3 100 0.0 0 0.0 3.9 13.9 350
11/01/2019 23:20 -3.2 100 0.0 0 0.0 4.1 14.8 349
11/01/2019 23:30 -3.1 100 0.0 0 0.0 3.7 13.4 349
11/01/2019 23:40 -3.2 100 0.0 0 0.0 3.4 12.3 351
11/01/2019 23:50 -3.2 100 0.0 0 0.0 3.4 12.3 352
Anterior Página 1 de 1 Siguiente
Los datos de precipitación registrados en estaciones que están en cumbres son inferiores a lo real, como consecuencia del efecto del viento y de la nieve.


NOTA: Tipo de datos según el color:
   - Valores diarios o 10 minutos correctos
   - Valores diarios calculados a partir de un número de datos 10 minutos menor que 144 y mayor que 120, o de un número de datos semihorarios menor que 48 y mayor que 40 (caso de las estaciones de Riegos de Navarra y del MARM)
   - Valores diez minutos estimados


Contacto        Enlaces        Aviso legal